Time;durP1;ratioP1;P1;durP2;ratioP2;P2;SDS_P1;SDS_P2;PMS_P1;PMS_P2;Temp;Humidity;BMP_temperature;BMP_pressure;BME280_temperature;BME280_humidity;BME280_pressure;Samples;Min_cycle;Max_cycle;Signal;HPM_P1;HPM_P2
2023/09/07 08:31:47;;;;;;;8.07;3.97;;;22.80;99.90;;;;;;5111796;27;20299;-67
2023/09/07 08:34:14;;;;;;;10.48;4.10;;;22.50;99.90;;;;;;5110792;28;20077;-64
2023/09/07 08:36:39;;;;;;;5.97;4.30;;;22.60;99.90;;;;;;5110698;28;20482;-64
2023/09/07 08:39:12;;;;;;;5.93;4.30;;;22.80;99.90;;;;;;5110874;28;20064;-63
2023/09/07 08:41:42;;;;;;;9.88;4.55;;;22.90;99.90;;;;;;5110667;28;20123;-64
2023/09/07 08:44:09;;;;;;;9.60;4.70;;;23.10;99.90;;;;;;5110764;28;20036;-64
2023/09/07 08:46:35;;;;;;;6.65;4.22;;;23.60;99.90;;;;;;5110713;28;20032;-62
2023/09/07 08:49:01;;;;;;;;;;;25.60;99.90;;;;;;5111112;28;20031;-63
2023/09/07 08:51:31;;;;;;;9.25;4.28;;;28.20;97.00;;;;;;5111262;28;19908;-65
2023/09/07 08:53:57;;;;;;;8.50;4.30;;;30.40;94.20;;;;;;5108927;28;20024;-65
2023/09/07 08:56:23;;;;;;;7.30;4.43;;;33.00;90.80;;;;;;5110590;28;20111;-64
2023/09/07 08:58:52;;;;;;;7.25;4.03;;;34.50;85.30;;;;;;5119242;28;20072;-64
2023/09/07 09:01:18;;;;;;;5.47;3.60;;;35.60;81.10;;;;;;5130910;28;20407;-64
2023/09/07 09:03:45;;;;;;;9.77;3.53;;;36.30;77.70;;;;;;5131386;27;20058;-64
2023/09/07 09:06:12;;;;;;;5.03;3.50;;;37.40;75.00;;;;;;5130770;28;20028;-63
2023/09/07 09:08:52;;;;;;;8.18;3.67;;;37.00;73.00;;;;;;5130523;27;20034;-64
2023/09/07 09:11:19;;;;;;;5.00;3.78;;;37.20;72.50;;;;;;5130875;28;20031;-64
2023/09/07 09:13:45;;;;;;;6.13;3.95;;;37.20;71.40;;;;;;5129568;28;20034;-65
2023/09/07 09:16:12;;;;;;;5.95;3.20;;;37.60;70.70;;;;;;5130727;28;20015;-64
2023/09/07 09:18:39;;;;;;;4.95;3.53;;;38.10;69.40;;;;;;5130540;27;20099;-65
2023/09/07 09:21:05;;;;;;;5.07;4.00;;;37.50;69.40;;;;;;5117865;28;20357;-65
2023/09/07 09:23:36;;;;;;;6.13;3.95;;;37.10;70.00;;;;;;5111364;28;20024;-65
2023/09/07 09:26:03;;;;;;;6.10;3.63;;;37.60;69.10;;;;;;5108784;28;20020;-65
2023/09/07 09:28:31;;;;;;;5.25;3.75;;;37.80;68.60;;;;;;5110508;28;20031;-65
2023/09/07 09:30:58;;;;;;;4.28;3.65;;;37.40;68.60;;;;;;5109624;28;20394;-65
2023/09/07 09:33:24;;;;;;;4.80;3.42;;;37.70;68.30;;;;;;5110374;28;20020;-62
2023/09/07 09:35:51;;;;;;;6.28;4.00;;;37.80;68.10;;;;;;5109740;28;20444;-63
2023/09/07 09:38:17;;;;;;;5.25;3.65;;;38.70;67.20;;;;;;5109706;28;20124;-62
2023/09/07 09:40:43;;;;;;;4.93;3.50;;;39.60;66.20;;;;;;5109699;28;20485;-62
2023/09/07 09:43:09;;;;;;;5.25;3.58;;;39.90;65.20;;;;;;5096560;28;20012;-62
2023/09/07 09:45:35;;;;;;;5.97;4.15;;;40.40;64.50;;;;;;5095920;28;20024;-62
2023/09/07 09:48:03;;;;;;;5.00;3.95;;;39.70;64.00;;;;;;5095894;28;20022;-63
2023/09/07 09:50:28;;;;;;;3.90;3.45;;;39.20;64.60;;;;;;5096272;28;20462;-62
2023/09/07 09:52:54;;;;;;;6.70;3.80;;;39.10;64.50;;;;;;5095682;28;20126;-62
2023/09/07 09:55:21;;;;;;;5.90;4.18;;;39.60;64.30;;;;;;5096659;28;20370;-63
2023/09/07 09:57:47;;;;;;;8.40;3.85;;;39.80;64.10;;;;;;5095779;28;20020;-63
2023/09/07 10:02:50;;;;;;;4.00;3.60;;;39.50;63.50;;;;;;5096030;28;20028;-62
2023/09/07 10:05:18;;;;;;;7.63;3.83;;;39.40;63.80;;;;;;5096171;28;20089;-64
2023/09/07 10:07:44;;;;;;;5.75;3.72;;;39.10;63.90;;;;;;5095341;28;20118;-63
2023/09/07 10:10:17;;;;;;;7.15;3.90;;;39.90;63.50;;;;;;5095678;28;20030;-62
2023/09/07 10:12:44;;;;;;;4.13;3.40;;;39.50;62.90;;;;;;5096077;28;20493;-62
2023/09/07 10:15:29;;;;;;;3.63;3.33;;;39.10;63.60;;;;;;5096404;28;20031;-63
2023/09/07 10:18:15;;;;;;;5.28;3.50;;;39.30;63.70;;;;;;5096777;28;20383;-63
2023/09/07 10:20:58;;;;;;;5.18;3.80;;;39.00;63.90;;;;;;5097103;28;20035;-63
2023/09/07 10:23:38;;;;;;;6.63;3.53;;;39.80;62.90;;;;;;5096098;28;20024;-61
2023/09/07 10:26:05;;;;;;;5.88;3.55;;;40.20;62.70;;;;;;5096203;28;20024;-62
2023/09/07 10:28:32;;;;;;;5.28;3.60;;;40.10;62.50;;;;;;5095958;28;20063;-61
2023/09/07 10:31:17;;;;;;;5.47;3.90;;;39.70;62.90;;;;;;5095412;28;20028;-61
2023/09/07 10:33:43;;;;;;;4.85;3.65;;;39.30;63.00;;;;;;5096246;28;20054;-63
2023/09/07 10:36:28;;;;;;;6.80;3.58;;;39.30;63.10;;;;;;5095729;28;20056;-68
2023/09/07 10:38:56;;;;;;;5.75;4.03;;;38.90;63.50;;;;;;5095204;28;20028;-66
2023/09/07 10:41:21;;;;;;;5.65;3.72;;;39.30;63.00;;;;;;5096220;28;20027;-66
2023/09/07 10:43:52;;;;;;;6.28;3.95;;;39.50;63.30;;;;;;5096652;28;20024;-66
2023/09/07 10:46:23;;;;;;;5.90;3.67;;;39.20;62.80;;;;;;5096743;28;20486;-66
2023/09/07 10:48:53;;;;;;;4.45;3.65;;;39.00;63.50;;;;;;5116150;28;20023;-64
2023/09/07 10:51:19;;;;;;;5.97;3.60;;;39.40;63.00;;;;;;5100249;28;20074;-64
2023/09/07 10:53:45;;;;;;;6.82;4.00;;;39.10;63.20;;;;;;5093174;28;20107;-64
2023/09/07 10:56:11;;;;;;;5.38;3.80;;;38.70;63.80;;;;;;5095472;28;20054;-65
2023/09/07 10:58:39;;;;;;;5.40;3.90;;;38.70;63.60;;;;;;5096013;28;20378;-64
2023/09/07 11:01:05;;;;;;;5.20;3.80;;;38.90;63.80;;;;;;5095118;28;20095;-65
2023/09/07 11:03:32;;;;;;;5.43;3.38;;;38.60;63.90;;;;;;5095962;28;20028;-63
2023/09/07 11:06:09;;;;;;;3.97;3.63;;;38.70;63.60;;;;;;5115369;28;20015;-64
2023/09/07 11:08:35;;;;;;;6.47;3.90;;;37.00;64.60;;;;;;5114748;28;20031;-64
2023/09/07 11:11:02;;;;;;;4.35;3.50;;;34.70;67.70;;;;;;5114638;28;20065;-64
2023/09/07 11:13:28;;;;;;;8.45;4.25;;;32.60;71.20;;;;;;5115406;28;20072;-64
2023/09/07 11:15:57;;;;;;;6.13;3.90;;;31.20;73.40;;;;;;5114775;28;20024;-64
2023/09/07 11:18:24;;;;;;;10.15;4.60;;;30.40;76.00;;;;;;5114766;28;20077;-64
2023/09/07 11:20:50;;;;;;;8.27;4.30;;;29.80;77.20;;;;;;5114346;28;20442;-65
2023/09/07 11:23:20;;;;;;;5.90;3.97;;;29.30;78.80;;;;;;5103642;28;20024;-65
2023/09/07 11:25:49;;;;;;;7.05;4.50;;;29.00;79.30;;;;;;5094534;28;20039;-65
2023/09/07 11:28:18;;;;;;;5.88;4.00;;;28.70;80.00;;;;;;5095084;28;20370;-64
2023/09/07 11:30:54;;;;;;;8.07;4.00;;;28.50;80.40;;;;;;5093688;28;20039;-66
2023/09/07 11:33:24;;;;;;;5.25;4.35;;;28.40;81.40;;;;;;5093954;28;20028;-65
2023/09/07 11:35:51;;;;;;;5.57;4.20;;;28.30;81.70;;;;;;5094129;28;20020;-64
2023/09/07 11:38:17;;;;;;;7.25;4.35;;;28.20;82.10;;;;;;5093828;28;20404;-64
2023/09/07 11:40:44;;;;;;;7.03;4.10;;;28.20;81.80;;;;;;5093915;28;20211;-65
2023/09/07 11:43:19;;;;;;;6.22;4.45;;;28.10;82.70;;;;;;5094075;28;20025;-63
2023/09/07 11:45:45;;;;;;;8.02;4.20;;;28.00;83.00;;;;;;5093802;28;20477;-64
2023/09/07 11:48:11;;;;;;;8.68;4.55;;;28.00;82.80;;;;;;5094131;28;20055;-65
2023/09/07 11:50:37;;;;;;;5.15;4.30;;;28.00;83.40;;;;;;5093701;28;20070;-65
2023/09/07 11:53:04;;;;;;;4.80;4.30;;;28.00;83.00;;;;;;5093395;28;20026;-65
2023/09/07 11:55:30;;;;;;;5.70;4.03;;;27.90;83.40;;;;;;5093011;28;20023;-63
2023/09/07 11:57:55;;;;;;;6.20;4.72;;;27.90;83.90;;;;;;5095096;28;20370;-63
2023/09/07 12:00:22;;;;;;;4.80;4.30;;;27.90;84.20;;;;;;5112030;28;20028;-65
2023/09/07 12:02:48;;;;;;;4.95;4.45;;;27.80;83.90;;;;;;5093681;28;20016;-64
2023/09/07 12:05:15;;;;;;;6.47;4.07;;;27.90;83.60;;;;;;5093223;28;20023;-65
2023/09/07 12:07:42;;;;;;;8.25;4.07;;;27.90;83.80;;;;;;5072290;28;20021;-64
2023/09/07 12:10:13;;;;;;;7.78;4.47;;;27.90;84.30;;;;;;5072961;28;20069;-64
2023/09/07 12:12:42;;;;;;;4.53;3.92;;;27.90;83.90;;;;;;5073132;28;20029;-64
2023/09/07 12:15:08;;;;;;;9.30;4.47;;;27.90;83.90;;;;;;5072758;28;20025;-64
2023/09/07 12:17:34;;;;;;;6.32;4.32;;;27.90;84.10;;;;;;5091910;28;20024;-65
2023/09/07 12:20:00;;;;;;;4.32;3.92;;;28.00;84.20;;;;;;5092063;28;20035;-66
2023/09/07 12:22:26;;;;;;;7.32;4.22;;;28.00;84.30;;;;;;5093146;28;20431;-65
2023/09/07 12:24:52;;;;;;;5.30;4.10;;;28.00;84.30;;;;;;5094603;28;20111;-64
2023/09/07 12:27:18;;;;;;;7.10;4.28;;;28.10;84.80;;;;;;5094109;28;20482;-66
2023/09/07 12:29:44;;;;;;;5.95;4.53;;;28.10;84.50;;;;;;5093218;28;20043;-65
2023/09/07 12:32:10;;;;;;;7.50;4.55;;;28.20;84.40;;;;;;5093586;28;20028;-65
2023/09/07 12:34:35;;;;;;;7.55;4.28;;;28.20;84.20;;;;;;5093480;28;20022;-65
2023/09/07 12:37:03;;;;;;;7.20;4.32;;;28.20;84.30;;;;;;5093952;28;20099;-66
2023/09/07 12:39:30;;;;;;;6.25;4.20;;;28.30;83.90;;;;;;5093352;28;20020;-65
2023/09/07 12:41:55;;;;;;;6.30;4.25;;;28.40;83.50;;;;;;5093250;28;20077;-65
2023/09/07 12:44:21;;;;;;;5.82;3.85;;;28.40;83.20;;;;;;5094952;28;20024;-64
2023/09/07 12:46:47;;;;;;;6.05;3.95;;;28.40;83.10;;;;;;5092966;28;20016;-67
2023/09/07 12:49:14;;;;;;;4.43;3.95;;;28.50;83.20;;;;;;5093283;28;20031;-65
2023/09/07 12:51:40;;;;;;;5.40;4.07;;;28.60;83.00;;;;;;5093157;28;20075;-64
2023/09/07 12:54:06;;;;;;;6.55;3.85;;;28.60;82.70;;;;;;5092924;28;20107;-65
2023/09/07 12:56:32;;;;;;;5.40;4.18;;;28.70;83.20;;;;;;5093058;28;20020;-65
2023/09/07 12:58:59;;;;;;;6.97;3.45;;;28.70;83.00;;;;;;5093218;28;20028;-64
2023/09/07 13:01:28;;;;;;;5.25;3.90;;;28.80;82.40;;;;;;5091558;28;20097;-65
2023/09/07 13:03:53;;;;;;;3.85;3.55;;;28.80;82.00;;;;;;5092843;28;20021;-65
2023/09/07 13:06:19;;;;;;;5.78;4.25;;;29.00;82.00;;;;;;5092954;28;20350;-64
2023/09/07 13:08:45;;;;;;;7.60;3.70;;;29.10;81.80;;;;;;5093018;28;20060;-66
2023/09/07 13:11:11;;;;;;;5.55;3.83;;;29.20;81.40;;;;;;5092915;28;20500;-66
2023/09/07 13:13:37;;;;;;;5.95;4.68;;;29.20;81.20;;;;;;5092850;28;20023;-64
2023/09/07 13:16:03;;;;;;;5.13;3.95;;;29.10;81.20;;;;;;5092901;28;20024;-65
2023/09/07 13:18:28;;;;;;;9.13;4.35;;;29.10;81.60;;;;;;5096515;28;20028;-64
2023/09/07 13:20:59;;;;;;;4.55;3.80;;;29.10;81.80;;;;;;5095076;28;20031;-65
2023/09/07 13:23:28;;;;;;;6.68;4.20;;;29.10;81.80;;;;;;5101600;28;20019;-65
2023/09/07 13:25:55;;;;;;;8.32;3.95;;;29.10;81.80;;;;;;5117224;28;20030;-65
2023/09/07 13:28:21;;;;;;;5.82;3.33;;;29.20;81.40;;;;;;5100090;28;20141;-65
2023/09/07 13:30:47;;;;;;;4.57;3.78;;;29.30;81.60;;;;;;5087026;28;20029;-66
2023/09/07 13:33:12;;;;;;;4.93;4.32;;;29.30;81.70;;;;;;5086451;28;20459;-66
2023/09/07 13:35:39;;;;;;;6.90;3.47;;;29.30;81.40;;;;;;5096352;28;20035;-65
2023/09/07 13:38:05;;;;;;;4.65;3.80;;;29.20;81.60;;;;;;5096528;28;20020;-66
2023/09/07 13:40:30;;;;;;;3.95;3.40;;;29.30;81.20;;;;;;5096307;28;20052;-65
2023/09/07 13:42:57;;;;;;;6.10;3.83;;;29.20;80.80;;;;;;5096700;28;20482;-66
2023/09/07 13:45:22;;;;;;;6.55;4.40;;;29.30;80.10;;;;;;5096519;28;20107;-65
2023/09/07 13:47:48;;;;;;;8.88;3.63;;;29.30;80.10;;;;;;5095160;28;20059;-64
2023/09/07 13:50:14;;;;;;;8.85;4.32;;;29.40;80.50;;;;;;5096430;28;20032;-65
2023/09/07 13:52:39;;;;;;;6.35;3.67;;;29.60;80.50;;;;;;5095693;28;20023;-64
2023/09/07 13:55:05;;;;;;;5.47;3.80;;;29.70;80.20;;;;;;5096052;28;20020;-64
2023/09/07 13:57:33;;;;;;;6.18;3.88;;;29.70;80.40;;;;;;5095913;28;20482;-65
2023/09/07 13:59:58;;;;;;;6.20;4.32;;;29.60;80.50;;;;;;5095358;28;20054;-67
2023/09/07 14:02:24;;;;;;;6.82;3.70;;;29.60;80.80;;;;;;5093234;28;20482;-68
2023/09/07 14:04:50;;;;;;;5.10;3.22;;;29.50;80.90;;;;;;5095185;28;20032;-67
2023/09/07 14:07:15;;;;;;;5.57;3.35;;;29.40;80.70;;;;;;5096119;28;20023;-60
2023/09/07 14:09:41;;;;;;;3.60;3.30;;;29.50;80.00;;;;;;5094911;28;20439;-60
2023/09/07 14:12:06;;;;;;;23.55;4.57;;;29.40;80.20;;;;;;5110746;28;20043;-62
2023/09/07 14:14:32;;;;;;;4.82;3.22;;;29.40;81.00;;;;;;5088459;28;20470;-61
2023/09/07 14:16:59;;;;;;;5.47;3.88;;;29.40;80.20;;;;;;5095145;28;20592;-61
2023/09/07 14:19:30;;;;;;;5.55;3.70;;;29.40;80.30;;;;;;5086397;28;20114;-59
2023/09/07 14:21:56;;;;;;;5.90;3.67;;;29.40;80.80;;;;;;5093051;28;20026;-60
2023/09/07 14:24:21;;;;;;;8.82;3.75;;;29.40;80.80;;;;;;5085092;28;20385;-67
2023/09/07 14:26:47;;;;;;;5.47;3.22;;;29.40;80.00;;;;;;5086775;28;20028;-65
2023/09/07 14:29:12;;;;;;;6.18;3.70;;;29.40;80.00;;;;;;5089554;28;20489;-65
2023/09/07 14:31:39;;;;;;;6.60;3.53;;;29.40;80.30;;;;;;5086892;28;20035;-65
2023/09/07 14:34:04;;;;;;;6.90;4.00;;;29.30;80.50;;;;;;5088161;28;20027;-66
2023/09/07 14:36:30;;;;;;;5.85;3.67;;;29.30;80.70;;;;;;5080579;28;20032;-66
2023/09/07 14:38:55;;;;;;;4.70;3.47;;;29.40;80.20;;;;;;5089000;28;20020;-66
2023/09/07 14:41:22;;;;;;;4.68;3.40;;;29.40;80.20;;;;;;5097733;28;20034;-64
2023/09/07 14:43:48;;;;;;;4.95;3.30;;;29.50;80.40;;;;;;5095820;28;20028;-65
2023/09/07 14:46:15;;;;;;;6.03;3.58;;;29.60;79.70;;;;;;5074845;28;20029;-67
2023/09/07 14:48:42;;;;;;;3.72;3.00;;;29.70;79.10;;;;;;5076631;28;20029;-65
2023/09/07 14:51:08;;;;;;;5.07;3.53;;;29.70;78.60;;;;;;5084582;28;20020;-64
2023/09/07 14:53:34;;;;;;;4.50;3.40;;;29.70;78.20;;;;;;5089389;28;20019;-66
2023/09/07 14:55:59;;;;;;;4.78;3.55;;;29.70;78.50;;;;;;5074585;28;20036;-66
2023/09/07 14:58:25;;;;;;;4.82;3.38;;;29.60;78.90;;;;;;5074855;28;20031;-65
2023/09/07 15:00:51;;;;;;;4.05;3.05;;;29.60;79.20;;;;;;5090980;28;20032;-66
2023/09/07 15:03:16;;;;;;;5.43;3.65;;;29.60;79.80;;;;;;5096998;28;20028;-65
2023/09/07 15:05:42;;;;;;;5.93;3.78;;;29.60;80.20;;;;;;5095696;28;20052;-65
2023/09/07 15:08:08;;;;;;;5.00;3.20;;;29.50;79.60;;;;;;5074829;28;20025;-65
2023/09/07 15:10:34;;;;;;;6.47;3.60;;;29.50;79.40;;;;;;5074682;28;20028;-66
2023/09/07 15:13:02;;;;;;;4.35;3.53;;;29.40;79.90;;;;;;5076726;28;20021;-66
2023/09/07 15:15:29;;;;;;;3.58;3.17;;;29.40;80.00;;;;;;5094223;28;20115;-65
2023/09/07 15:17:54;;;;;;;5.70;3.63;;;29.40;80.00;;;;;;5097155;28;20407;-65
2023/09/07 15:20:20;;;;;;;5.40;3.58;;;29.50;79.30;;;;;;5086389;28;20036;-66
2023/09/07 15:22:45;;;;;;;7.35;3.67;;;29.40;79.30;;;;;;5081567;28;20027;-67
2023/09/07 15:25:11;;;;;;;6.85;3.40;;;29.40;80.50;;;;;;5082839;28;20040;-65
2023/09/07 15:27:37;;;;;;;7.00;3.55;;;29.30;80.50;;;;;;5074187;28;20031;-65
2023/09/07 15:30:03;;;;;;;4.75;3.72;;;29.20;81.00;;;;;;5076085;28;20051;-67
2023/09/07 15:32:29;;;;;;;7.90;3.80;;;29.30;80.00;;;;;;5074697;28;20028;-66
2023/09/07 15:34:54;;;;;;;4.38;3.90;;;29.20;79.80;;;;;;5077029;28;20021;-65
2023/09/07 15:37:20;;;;;;;5.03;3.75;;;29.10;79.80;;;;;;5095828;28;20035;-65
2023/09/07 15:39:45;;;;;;;7.28;3.83;;;29.10;80.60;;;;;;5094324;28;20024;-67
2023/09/07 15:42:11;;;;;;;4.28;3.17;;;29.00;80.20;;;;;;5075040;28;20017;-67
2023/09/07 15:44:36;;;;;;;4.38;3.28;;;29.00;80.70;;;;;;5074208;28;20099;-68
2023/09/07 15:47:02;;;;;;;3.78;3.00;;;29.10;79.90;;;;;;5074671;28;20025;-68
2023/09/07 15:49:28;;;;;;;7.40;3.33;;;29.00;79.90;;;;;;5085353;28;20027;-65
2023/09/07 15:51:53;;;;;;;4.78;3.05;;;29.00;80.10;;;;;;5074406;28;20033;-68
2023/09/07 15:54:19;;;;;;;5.05;3.33;;;29.10;79.90;;;;;;5093530;28;20074;-66
2023/09/07 15:56:44;;;;;;;4.55;3.47;;;29.10;80.00;;;;;;5093999;28;20062;-65
2023/09/07 15:59:10;;;;;;;3.72;3.30;;;29.10;79.90;;;;;;5094127;28;20024;-65
2023/09/07 16:01:36;;;;;;;5.60;3.70;;;29.10;79.90;;;;;;5073388;28;20059;-66
2023/09/07 16:04:02;;;;;;;7.25;3.50;;;29.00;80.00;;;;;;5093419;28;20068;-66
2023/09/07 16:06:28;;;;;;;3.97;3.58;;;29.00;81.00;;;;;;5094427;28;20028;-66
2023/09/07 16:08:54;;;;;;;3.45;3.15;;;29.00;80.30;;;;;;5094032;28;20020;-67
2023/09/07 16:11:19;;;;;;;7.15;3.33;;;28.90;80.20;;;;;;5094575;28;20028;-67
2023/09/07 16:13:45;;;;;;;4.38;3.22;;;28.90;80.70;;;;;;5091018;28;20060;-66
2023/09/07 16:16:11;;;;;;;3.80;3.33;;;28.80;80.90;;;;;;5083561;28;20499;-66
2023/09/07 16:18:36;;;;;;;7.53;3.55;;;28.80;81.20;;;;;;5093968;28;20017;-64
2023/09/07 16:21:06;;;;;;;4.53;3.53;;;28.80;81.30;;;;;;5094102;28;20020;-68
2023/09/07 16:23:32;;;;;;;4.47;3.60;;;28.80;81.40;;;;;;5095134;28;20078;-68
2023/09/07 16:25:57;;;;;;;5.35;3.67;;;28.70;81.60;;;;;;5092395;28;20020;-66
2023/09/07 16:28:23;;;;;;;4.72;3.78;;;28.70;81.40;;;;;;5094490;28;20032;-67
2023/09/07 16:30:50;;;;;;;3.35;3.05;;;28.70;80.90;;;;;;5090607;28;20417;-63
2023/09/07 16:33:16;;;;;;;5.90;4.20;;;28.70;80.80;;;;;;5094236;28;20033;-64
2023/09/07 16:35:42;;;;;;;5.60;3.58;;;28.60;81.10;;;;;;5094433;28;20024;-65
2023/09/07 16:38:07;;;;;;;7.15;3.20;;;28.60;80.90;;;;;;5094121;28;20016;-66
2023/09/07 16:40:36;;;;;;;5.60;3.42;;;28.70;80.90;;;;;;5093835;28;20032;-65
2023/09/07 16:43:02;;;;;;;5.78;3.47;;;28.80;80.60;;;;;;5093823;28;20069;-65
2023/09/07 16:45:27;;;;;;;6.43;3.22;;;28.70;80.90;;;;;;5093697;28;20031;-64
2023/09/07 16:47:53;;;;;;;5.82;3.28;;;28.70;81.00;;;;;;5093131;28;20028;-64
2023/09/07 16:50:19;;;;;;;3.85;3.40;;;28.70;81.00;;;;;;5093058;28;20391;-63
2023/09/07 16:52:44;;;;;;;4.72;3.20;;;28.70;81.50;;;;;;5095862;28;20031;-63
2023/09/07 16:55:10;;;;;;;7.53;3.17;;;28.70;80.80;;;;;;5097161;28;20024;-64
2023/09/07 16:57:36;;;;;;;8.00;3.38;;;28.60;81.30;;;;;;5097438;28;20016;-65
2023/09/07 17:00:03;;;;;;;7.00;3.65;;;28.60;81.10;;;;;;5097180;28;20031;-65
2023/09/07 17:02:29;;;;;;;4.13;3.60;;;28.60;81.10;;;;;;5097352;28;20024;-66
2023/09/07 17:04:54;;;;;;;4.53;3.10;;;28.60;81.40;;;;;;5097787;28;20024;-65
2023/09/07 17:07:22;;;;;;;5.18;3.10;;;28.60;81.10;;;;;;5094842;28;20032;-65
2023/09/07 17:09:49;;;;;;;4.13;3.25;;;28.50;81.50;;;;;;5097319;28;20084;-66
2023/09/07 17:12:15;;;;;;;6.07;3.65;;;28.50;81.80;;;;;;5096944;28;20016;-68
2023/09/07 17:14:41;;;;;;;6.53;3.75;;;28.40;82.00;;;;;;5097405;28;20467;-57
2023/09/07 17:17:07;;;;;;;3.63;3.20;;;28.30;82.40;;;;;;5096815;28;20024;-62
2023/09/07 17:19:33;;;;;;;4.53;3.67;;;28.30;82.60;;;;;;5096833;28;20012;-63
2023/09/07 17:21:59;;;;;;;5.25;3.40;;;28.30;82.90;;;;;;5095584;28;20398;-61
2023/09/07 17:24:25;;;;;;;6.38;3.75;;;28.20;82.90;;;;;;5096775;28;20035;-63
2023/09/07 17:26:50;;;;;;;6.05;3.90;;;28.20;83.30;;;;;;5096797;28;20424;-63
2023/09/07 17:29:17;;;;;;;5.55;3.70;;;28.20;83.40;;;;;;5096430;28;20031;-62
2023/09/07 17:31:43;;;;;;;5.93;3.80;;;28.00;83.60;;;;;;5096467;28;20398;-62
2023/09/07 17:34:08;;;;;;;7.88;3.40;;;28.00;84.00;;;;;;5096820;28;20024;-63
2023/09/07 17:36:34;;;;;;;5.85;3.67;;;27.90;84.30;;;;;;5097046;28;20036;-64
2023/09/07 17:38:59;;;;;;;7.07;3.58;;;27.90;84.60;;;;;;5096560;28;20023;-62
2023/09/07 17:41:28;;;;;;;10.00;4.30;;;27.80;84.90;;;;;;5096541;28;20034;-63
2023/09/07 17:43:55;;;;;;;5.75;3.60;;;27.70;85.00;;;;;;5096905;28;20031;-62
2023/09/07 17:46:21;;;;;;;4.55;3.80;;;27.70;85.40;;;;;;5097848;28;20031;-63
2023/09/07 17:48:47;;;;;;;5.18;4.20;;;27.60;85.70;;;;;;5098942;28;20351;-64
2023/09/07 17:51:12;;;;;;;9.82;4.30;;;27.50;86.10;;;;;;5107721;28;20026;-61
2023/09/07 17:53:38;;;;;;;8.75;5.85;;;27.40;86.30;;;;;;5090579;28;20028;-68
2023/09/07 17:56:11;;;;;;;8.85;6.75;;;27.30;86.80;;;;;;5088124;28;20104;-64
2023/09/07 17:58:39;;;;;;;9.73;6.90;;;27.20;87.00;;;;;;5096152;28;20048;-64
2023/09/07 18:01:13;;;;;;;8.05;6.18;;;27.10;87.40;;;;;;5096690;28;20097;-64
2023/09/07 18:03:39;;;;;;;8.40;5.70;;;26.90;88.00;;;;;;5080091;28;20463;-65
2023/09/07 18:06:05;;;;;;;7.65;5.30;;;26.80;88.60;;;;;;5075770;28;20034;-65
2023/09/07 18:08:35;;;;;;;8.68;5.25;;;26.70;89.30;;;;;;5081265;28;20020;-62
2023/09/07 18:11:01;;;;;;;8.60;4.18;;;26.60;89.80;;;;;;5096553;28;20048;-62
2023/09/07 18:13:26;;;;;;;7.57;4.00;;;26.40;90.10;;;;;;5096062;28;20074;-60
2023/09/07 18:15:52;;;;;;;5.57;4.25;;;26.40;90.00;;;;;;5095874;28;20067;-61
2023/09/07 18:18:17;;;;;;;9.88;4.88;;;26.50;90.00;;;;;;5095899;28;20107;-62
2023/09/07 18:20:45;;;;;;;9.48;5.82;;;26.40;90.00;;;;;;5101315;28;20098;-62
2023/09/07 18:23:11;;;;;;;10.60;6.70;;;26.40;90.00;;;;;;5099557;28;20031;-61
2023/09/07 18:25:38;;;;;;;10.38;6.22;;;26.30;89.90;;;;;;5075499;28;20031;-60
2023/09/07 18:28:05;;;;;;;6.40;4.85;;;26.20;90.00;;;;;;5074329;28;20162;-62
2023/09/07 18:30:31;;;;;;;7.68;4.32;;;26.20;90.00;;;;;;5075986;28;20510;-60
2023/09/07 18:32:58;;;;;;;10.65;5.18;;;26.20;90.00;;;;;;5075672;28;20379;-62
2023/09/07 18:35:24;;;;;;;7.03;4.20;;;26.30;89.90;;;;;;5074502;28;20430;-62
2023/09/07 18:37:50;;;;;;;7.10;4.63;;;26.20;90.10;;;;;;5080795;28;20015;-62
2023/09/07 18:40:15;;;;;;;7.35;4.60;;;26.20;90.30;;;;;;5096194;28;20364;-62
2023/09/07 18:42:41;;;;;;;4.93;4.10;;;26.20;90.20;;;;;;5095966;28;20019;-63
2023/09/07 18:45:07;;;;;;;8.93;4.63;;;26.10;90.40;;;;;;5095832;28;20028;-63
2023/09/07 18:47:32;;;;;;;14.90;10.85;;;26.10;90.50;;;;;;5095764;28;20112;-64
2023/09/07 18:49:58;;;;;;;;;;;26.00;90.60;;;;;;5095652;28;20067;-62
2023/09/07 18:52:23;;;;;;;7.43;4.60;;;25.90;90.80;;;;;;5094939;28;20366;-64
2023/09/07 18:54:50;;;;;;;;;;;25.90;90.90;;;;;;5095171;28;20509;-63
2023/09/07 18:57:15;;;;;;;7.07;4.40;;;25.80;91.00;;;;;;5095060;28;19904;-60
2023/09/07 18:59:41;;;;;;;;;;;25.70;91.10;;;;;;5094984;28;20371;-63
2023/09/07 19:02:06;;;;;;;7.95;4.20;;;25.60;91.30;;;;;;5093387;28;19912;-62
2023/09/07 19:04:33;;;;;;;;;;;25.50;91.40;;;;;;5095407;28;20024;-62
2023/09/07 19:06:59;;;;;;;7.22;4.65;;;25.50;91.60;;;;;;5094641;28;19927;-62
2023/09/07 19:09:24;;;;;;;8.80;5.10;;;25.40;91.70;;;;;;5094396;28;20047;-62
2023/09/07 19:11:51;;;;;;;;;;;25.40;91.80;;;;;;5095584;28;20050;-62
2023/09/07 19:14:16;;;;;;;9.80;5.43;;;25.40;91.80;;;;;;5095555;28;19973;-63
2023/09/07 19:16:42;;;;;;;;;;;25.30;92.00;;;;;;5096497;28;20494;-63
2023/09/07 19:19:08;;;;;;;7.03;4.72;;;25.20;92.10;;;;;;5096948;28;19907;-63
2023/09/07 19:21:33;;;;;;;;;;;25.20;92.30;;;;;;5109090;28;20028;-62
2023/09/07 19:23:59;;;;;;;6.88;4.75;;;25.10;92.50;;;;;;5098257;28;19904;-63
2023/09/07 19:26:28;;;;;;;;;;;25.00;92.60;;;;;;5094764;28;20026;-63
2023/09/07 19:28:54;;;;;;;9.63;4.50;;;24.90;92.70;;;;;;5094605;28;20002;-63
2023/09/07 19:31:19;;;;;;;;;;;24.90;92.90;;;;;;5094693;28;20115;-64
2023/09/07 19:33:49;;;;;;;8.70;5.10;;;24.80;92.90;;;;;;5094366;28;19910;-63
2023/09/07 19:36:15;;;;;;;6.68;5.30;;;24.80;92.90;;;;;;5094889;28;20032;-62
2023/09/07 19:38:40;;;;;;;;;;;24.70;93.00;;;;;;5091416;28;20024;-63
2023/09/07 19:41:06;;;;;;;9.70;5.68;;;24.70;92.90;;;;;;5094222;28;19998;-64
2023/09/07 19:43:31;;;;;;;;;;;24.60;93.00;;;;;;5094668;28;20107;-63
2023/09/07 19:45:57;;;;;;;10.48;5.70;;;24.60;93.00;;;;;;5095312;28;19919;-63
2023/09/07 19:48:22;;;;;;;;;;;24.60;93.10;;;;;;5094251;28;20023;-62
2023/09/07 19:50:48;;;;;;;7.95;5.28;;;24.50;93.00;;;;;;5094698;28;19912;-63
2023/09/07 19:53:13;;;;;;;;;;;24.40;92.80;;;;;;5095200;28;20036;-63
2023/09/07 19:55:39;;;;;;;7.78;5.28;;;24.40;92.90;;;;;;5092872;28;19904;-63
2023/09/07 19:58:05;;;;;;;;;;;24.40;92.40;;;;;;5093158;28;20026;-62
2023/09/07 20:00:30;;;;;;;7.28;5.00;;;24.40;91.60;;;;;;5093885;28;19904;-63
2023/09/07 20:02:56;;;;;;;;;;;24.50;91.20;;;;;;5094539;28;20465;-62
2023/09/07 20:05:22;;;;;;;8.68;5.13;;;24.40;91.10;;;;;;5092843;28;19910;-63
2023/09/07 20:07:49;;;;;;;;;;;24.40;90.80;;;;;;5094526;28;20099;-63
2023/09/07 20:10:14;;;;;;;8.93;5.50;;;24.40;90.70;;;;;;5112865;28;19908;-63
2023/09/07 20:12:40;;;;;;;;;;;24.50;90.60;;;;;;5117638;28;20553;-63
2023/09/07 20:15:06;;;;;;;8.65;5.10;;;24.50;90.50;;;;;;5114834;28;19904;-63
2023/09/07 20:17:32;;;;;;;6.95;5.00;;;24.50;90.50;;;;;;5114380;28;20398;-64
2023/09/07 20:19:57;;;;;;;;;;;24.60;90.60;;;;;;5114619;28;20019;-63
2023/09/07 20:22:27;;;;;;;7.13;4.72;;;24.50;90.60;;;;;;5110809;28;19904;-63
2023/09/07 20:24:54;;;;;;;7.38;5.40;;;24.30;90.80;;;;;;5093595;28;20016;-63
2023/09/07 20:27:19;;;;;;;7.20;4.78;;;24.30;91.00;;;;;;5101841;28;20484;-61
2023/09/07 20:29:45;;;;;;;;;;;24.20;91.20;;;;;;5114384;28;20035;-62
2023/09/07 20:32:10;;;;;;;7.88;4.53;;;24.10;91.20;;;;;;5113742;28;19903;-61
2023/09/07 20:34:36;;;;;;;;;;;24.00;91.50;;;;;;5114292;28;20573;-62
2023/09/07 20:37:01;;;;;;;5.05;4.10;;;24.00;91.50;;;;;;5113836;28;20424;-64
2023/09/07 20:39:27;;;;;;;;;;;24.00;91.40;;;;;;5113787;28;20022;-63
2023/09/07 20:41:52;;;;;;;9.10;4.80;;;23.90;91.50;;;;;;5113912;28;20362;-62
2023/09/07 20:44:18;;;;;;;;;;;23.90;91.70;;;;;;5113953;28;20024;-61
2023/09/07 20:46:43;;;;;;;6.22;4.45;;;23.90;91.50;;;;;;5113630;28;19907;-63
2023/09/07 20:49:09;;;;;;;;;;;23.90;91.50;;;;;;5114355;28;20099;-63
2023/09/07 20:51:36;;;;;;;6.55;4.60;;;23.80;91.60;;;;;;5113942;28;19911;-62
2023/09/07 20:54:02;;;;;;;8.65;4.70;;;23.80;91.90;;;;;;5096042;28;20021;-61
2023/09/07 20:56:28;;;;;;;6.85;4.53;;;23.80;91.90;;;;;;5092781;28;20161;-60
2023/09/07 20:58:53;;;;;;;;;;;23.70;91.90;;;;;;5094221;28;20073;-65
2023/09/07 21:01:19;;;;;;;6.00;4.40;;;23.70;92.20;;;;;;5093187;28;19960;-62
2023/09/07 21:03:46;;;;;;;;;;;23.60;92.20;;;;;;5092463;28;20024;-61
2023/09/07 21:06:11;;;;;;;7.70;4.78;;;23.60;92.30;;;;;;5093184;28;20409;-63
2023/09/07 21:08:36;;;;;;;;;;;23.60;92.60;;;;;;5093610;28;20113;-63
2023/09/07 21:11:03;;;;;;;8.20;4.68;;;23.60;92.40;;;;;;5092600;28;19958;-59
2023/09/07 21:13:29;;;;;;;8.55;5.50;;;23.50;92.50;;;;;;5093045;28;20035;-62
2023/09/07 21:15:55;;;;;;;;;;;23.50;92.70;;;;;;5092107;28;20020;-63
2023/09/07 21:18:21;;;;;;;9.13;5.15;;;23.40;92.80;;;;;;5093084;28;19905;-60
2023/09/07 21:20:46;;;;;;;7.88;5.28;;;23.40;92.90;;;;;;5092821;28;20103;-63
2023/09/07 21:23:12;;;;;;;6.30;4.75;;;23.40;93.00;;;;;;5092898;28;20036;-62